Time;durP1;ratioP1;P1;durP2;ratioP2;P2;SDS_P1;SDS_P2;PMS_P1;PMS_P2;Temp;Humidity;BMP_temperature;BMP_pressure;BME280_temperature;BME280_humidity;BME280_pressure;Samples;Min_cycle;Max_cycle;Signal;HPM_P1;HPM_P2
2022/12/29 00:01:26;;;;;;;5.40;1.60;;;;;;;8.86;100.00;100455.81;5008970;28;20112;-75
2022/12/29 00:03:57;;;;;;;3.80;1.75;;;;;;;8.83;100.00;100448.00;5009730;28;20061;-77
2022/12/29 00:06:25;;;;;;;3.95;1.35;;;;;;;8.84;100.00;100447.16;5010830;28;20049;-75
2022/12/29 00:08:54;;;;;;;7.78;1.50;;;;;;;8.81;100.00;100442.78;5005494;28;20060;-77
2022/12/29 00:11:24;;;;;;;7.93;1.35;;;;;;;8.76;100.00;100448.63;5009768;28;20045;-74
2022/12/29 00:16:39;;;;;;;6.40;1.17;;;;;;;8.69;100.00;100444.13;5007884;28;20188;-75
2022/12/29 00:35:07;;;;;;;2.45;0.93;;;;;;;8.67;100.00;100443.19;5005332;28;20057;-75
2022/12/29 00:36:02;;;;;;;4.00;1.08;;;;;;;8.51;100.00;100434.94;5011448;28;20052;-74
2022/12/29 00:44:07;;;;;;;2.25;0.60;;;;;;;8.38;100.00;100435.31;5011335;28;20184;-72
2022/12/29 00:46:36;;;;;;;1.50;0.70;;;;;;;8.32;100.00;100430.00;5007661;28;20053;-73
2022/12/29 00:52:02;;;;;;;3.60;0.77;;;;;;;8.18;100.00;100417.50;5006697;28;20133;-71
2022/12/29 00:54:31;;;;;;;0.73;0.52;;;;;;;8.21;100.00;100411.59;5002052;28;20050;-71
2022/12/29 00:57:00;;;;;;;1.80;0.50;;;;;;;8.22;100.00;100412.44;5007385;28;20045;-71
2022/12/29 00:59:29;;;;;;;2.67;0.70;;;;;;;8.24;100.00;100421.13;5011266;28;20057;-74
2022/12/29 01:01:58;;;;;;;2.42;0.70;;;;;;;8.26;100.00;100417.75;5008888;28;20495;-74
2022/12/29 01:04:28;;;;;;;3.15;0.52;;;;;;;8.22;100.00;100420.19;5012941;28;20049;-72
2022/12/29 01:06:58;;;;;;;3.60;0.38;;;;;;;8.21;100.00;100416.75;5006678;28;20045;-71
2022/12/29 01:12:12;;;;;;;3.38;0.50;;;;;;;8.28;100.00;100418.69;5009892;28;20118;-72
2022/12/29 01:14:41;;;;;;;1.85;0.60;;;;;;;8.23;100.00;100409.06;5010919;28;20058;-73
2022/12/29 01:17:10;;;;;;;1.58;0.45;;;;;;;8.27;100.00;100410.91;5012602;28;20141;-72
2022/12/29 01:19:38;;;;;;;2.95;0.70;;;;;;;8.27;100.00;100416.06;5003867;28;20584;-74
2022/12/29 01:22:09;;;;;;;1.67;0.47;;;;;;;8.27;100.00;100416.06;5008297;28;20545;-72
2022/12/29 01:24:44;;;;;;;1.35;0.55;;;;;;;8.25;100.00;100420.31;5007700;28;20046;-73
2022/12/29 01:27:12;;;;;;;3.83;0.73;;;;;;;8.26;100.00;100409.16;5011386;28;20057;-74
2022/12/29 01:29:41;;;;;;;4.85;0.60;;;;;;;8.29;100.00;100410.16;5005016;28;20058;-73
2022/12/29 01:32:09;;;;;;;4.78;0.95;;;;;;;8.32;100.00;100412.81;5002949;28;20924;-71
2022/12/29 01:34:38;;;;;;;0.88;0.40;;;;;;;8.35;100.00;100414.63;5011313;28;20446;-73
2022/12/29 01:37:08;;;;;;;2.50;0.80;;;;;;;8.36;100.00;100421.50;5014565;28;20045;-73
2022/12/29 01:39:37;;;;;;;1.70;0.73;;;;;;;8.38;100.00;100415.59;5010002;28;20061;-72
2022/12/29 01:42:05;;;;;;;3.00;0.60;;;;;;;8.33;100.00;100398.22;5003258;28;20050;-73
2022/12/29 01:44:55;;;;;;;4.15;1.52;;;;;;;8.45;100.00;100408.94;5006848;28;20058;-73
2022/12/29 01:47:31;;;;;;;2.08;1.10;;;;;;;8.48;100.00;100421.97;5009701;28;20328;-73
2022/12/29 01:50:04;;;;;;;4.57;1.00;;;;;;;8.45;100.00;100415.81;5007922;28;20084;-73
2022/12/29 01:52:37;;;;;;;5.40;1.40;;;;;;;8.42;100.00;100408.88;5016794;28;20474;-73
2022/12/29 01:55:07;;;;;;;2.80;1.30;;;;;;;8.39;100.00;100401.00;5010571;28;20053;-72
2022/12/29 01:57:39;;;;;;;4.78;2.08;;;;;;;8.34;100.00;100393.13;5010554;28;20058;-74
2022/12/29 02:00:10;;;;;;;1.98;1.30;;;;;;;8.39;100.00;100406.16;5009880;28;20050;-73
2022/12/29 02:02:40;;;;;;;5.13;1.85;;;;;;;8.41;100.00;100407.13;5009641;28;20053;-74
2022/12/29 02:05:17;;;;;;;2.97;1.35;;;;;;;8.39;100.00;100404.44;5012173;28;20484;-74
2022/12/29 02:07:50;;;;;;;3.03;1.73;;;;;;;8.39;100.00;100406.16;5003016;28;20496;-73
2022/12/29 02:10:21;;;;;;;3.60;1.77;;;;;;;8.38;100.00;100409.53;5008691;28;20049;-74
2022/12/29 02:12:49;;;;;;;7.18;2.10;;;;;;;8.38;100.00;100406.97;5012394;28;20411;-74
2022/12/29 02:15:19;;;;;;;4.85;1.83;;;;;;;8.40;100.00;100405.34;5008068;28;20129;-77
2022/12/29 02:18:06;;;;;;;5.82;1.95;;;;;;;8.42;100.00;100401.13;5009851;28;20046;-79
2022/12/29 02:21:21;;;;;;;2.63;1.10;;;;;;;8.38;100.00;100402.72;4999057;28;20054;-74
2022/12/29 02:24:15;;;;;;;6.57;1.95;;;;;;;8.37;100.00;100397.50;4952063;28;20047;-77
2022/12/29 02:27:03;;;;;;;2.75;0.68;;;;;;;8.37;100.00;100394.91;4993390;28;20041;-75
2022/12/29 02:29:58;;;;;;;2.13;0.45;;;;;;;8.37;100.00;100384.59;5010057;28;20054;-76
2022/12/29 02:32:38;;;;;;;1.60;0.60;;;;;;;8.38;100.00;100389.81;5011099;28;20049;-75
2022/12/29 02:35:15;;;;;;;1.60;0.60;;;;;;;8.36;100.00;100382.84;5006830;28;20073;-75
2022/12/29 02:37:50;;;;;;;2.65;0.65;;;;;;;8.39;100.00;100380.38;5007329;28;20049;-74
2022/12/29 02:40:26;;;;;;;1.27;0.68;;;;;;;8.40;100.00;100387.31;5018492;28;20044;-77
2022/12/29 02:43:13;;;;;;;3.72;0.80;;;;;;;8.39;100.00;100385.53;5003554;28;20392;-78
2022/12/29 02:45:50;;;;;;;7.32;1.42;;;;;;;8.38;100.00;100388.94;5003440;28;20054;-77
2022/12/29 02:48:26;;;;;;;6.05;1.40;;;;;;;8.37;100.00;100382.91;5002772;28;20045;-76
2022/12/29 02:51:02;;;;;;;2.38;0.70;;;;;;;8.38;100.00;100378.63;5012421;28;20058;-75
2022/12/29 02:56:18;;;;;;;3.67;1.10;;;;;;;8.45;100.00;100380.59;5002827;28;20233;-74
2022/12/29 02:58:46;;;;;;;3.15;1.10;;;;;;;8.46;100.00;100377.19;5016952;28;20125;-75
2022/12/29 03:01:34;;;;;;;4.90;1.40;;;;;;;8.48;100.00;100383.28;5010798;28;20082;-75
2022/12/29 03:04:24;;;;;;;3.08;0.90;;;;;;;8.50;100.00;100379.06;5006147;28;20054;-74
2022/12/29 03:07:03;;;;;;;1.80;0.60;;;;;;;8.52;100.00;100379.09;5010465;28;20117;-75
2022/12/29 03:09:39;;;;;;;4.80;0.90;;;;;;;8.51;100.00;100375.63;5007502;28;20054;-74
2022/12/29 03:12:23;;;;;;;4.05;0.93;;;;;;;8.53;100.00;100381.72;5010837;28;20054;-77
2022/12/29 03:17:53;;;;;;;1.45;0.98;;;;;;;8.58;100.00;100367.25;4995846;28;20443;-77
2022/12/29 03:20:28;;;;;;;2.42;0.45;;;;;;;8.59;100.00;100369.03;5018133;28;20041;-74
2022/12/29 03:23:03;;;;;;;1.05;0.45;;;;;;;8.59;100.00;100366.44;5005256;28;20389;-74
2022/12/29 03:25:34;;;;;;;1.27;0.85;;;;;;;8.58;100.00;100356.94;5011052;28;20045;-76
2022/12/29 03:28:08;;;;;;;2.83;0.65;;;;;;;8.59;100.00;100358.72;5015795;28;20067;-76
2022/12/29 03:30:39;;;;;;;4.30;0.80;;;;;;;8.63;100.00;100353.66;5011020;28;20107;-76
2022/12/29 03:33:12;;;;;;;2.58;0.47;;;;;;;8.63;100.00;100351.94;5008922;28;21270;-76
2022/12/29 03:35:45;;;;;;;1.38;1.05;;;;;;;8.66;100.00;100362.38;5007299;28;20081;-76
2022/12/29 03:38:20;;;;;;;0.52;0.30;;;;;;;8.66;100.00;100357.22;5003616;28;20416;-76
2022/12/29 03:40:52;;;;;;;1.45;0.43;;;;;;;8.67;100.00;100355.50;5006178;28;20065;-75
2022/12/29 03:43:21;;;;;;;0.57;0.30;;;;;;;8.66;100.00;100356.31;5013992;28;20050;-75
2022/12/29 03:45:50;;;;;;;0.20;0.20;;;;;;;8.66;100.00;100346.00;5005119;28;20054;-74
2022/12/29 03:48:19;;;;;;;1.02;0.40;;;;;;;8.68;100.00;100355.56;4999848;28;20470;-76
2022/12/29 03:50:49;;;;;;;2.67;0.35;;;;;;;8.69;100.00;100353.84;5014503;28;20415;-75
2022/12/29 03:53:18;;;;;;;0.38;0.28;;;;;;;8.71;100.00;100352.19;5007385;28;20060;-75
2022/12/29 03:55:47;;;;;;;0.30;0.10;;;;;;;8.73;100.00;100350.53;5007809;28;20805;-74
2022/12/29 03:58:15;;;;;;;1.15;0.30;;;;;;;8.74;100.00;100352.28;5005845;28;20574;-74
2022/12/29 04:00:44;;;;;;;0.80;0.50;;;;;;;8.76;100.00;100345.47;5007744;28;20054;-73
2022/12/29 04:03:13;;;;;;;3.35;0.50;;;;;;;8.77;100.00;100348.09;5005031;28;20443;-77
2022/12/29 04:05:41;;;;;;;2.05;0.50;;;;;;;8.80;100.00;100342.16;5009048;28;20054;-76
2022/12/29 04:08:12;;;;;;;0.40;0.30;;;;;;;8.78;100.00;100343.81;5005997;28;20052;-76
2022/12/29 04:10:41;;;;;;;2.33;0.40;;;;;;;8.79;100.00;100340.38;5007453;28;20061;-77
2022/12/29 04:13:09;;;;;;;1.77;0.50;;;;;;;8.79;100.00;100345.53;5008010;28;20525;-76
2022/12/29 04:15:38;;;;;;;0.98;0.22;;;;;;;8.81;100.00;100339.59;5004062;28;20411;-77
2022/12/29 04:18:06;;;;;;;0.60;0.50;;;;;;;8.84;100.00;100332.78;5005818;28;20523;-76
2022/12/29 04:23:22;;;;;;;1.70;0.55;;;;;;;8.88;100.00;100338.06;5002983;28;20065;-74
2022/12/29 04:25:51;;;;;;;0.30;0.25;;;;;;;8.89;100.00;100332.09;5004321;28;20046;-76
2022/12/29 04:28:20;;;;;;;0.60;0.30;;;;;;;8.91;100.00;100322.69;5006067;28;20049;-75
2022/12/29 04:30:49;;;;;;;0.45;0.30;;;;;;;8.92;100.00;100329.59;5006789;28;20042;-75
2022/12/29 04:33:17;;;;;;;2.78;0.30;;;;;;;8.91;100.00;100325.28;5011111;28;20125;-78
2022/12/29 04:35:46;;;;;;;1.60;0.50;;;;;;;8.93;100.00;100322.72;5011034;28;20042;-77
2022/12/29 04:38:15;;;;;;;0.88;0.40;;;;;;;8.91;100.00;100312.38;5003943;28;20172;-77
2022/12/29 04:40:46;;;;;;;0.80;0.30;;;;;;;8.91;100.00;100314.06;5005420;28;20052;-76
2022/12/29 04:43:15;;;;;;;0.40;0.38;;;;;;;8.89;100.00;100316.63;5004670;28;20415;-76
2022/12/29 04:45:46;;;;;;;2.25;0.40;;;;;;;8.87;100.00;100313.13;4998999;28;20054;-74
2022/12/29 04:48:15;;;;;;;1.13;0.30;;;;;;;8.85;100.00;100299.28;5000608;28;20057;-77
2022/12/29 04:50:44;;;;;;;0.35;0.25;;;;;;;8.81;100.00;100305.19;5005114;28;20053;-77
2022/12/29 04:53:13;;;;;;;1.50;0.40;;;;;;;8.80;100.00;100300.88;5008349;28;20447;-77
2022/12/29 04:55:42;;;;;;;0.30;0.20;;;;;;;8.75;100.00;100286.94;4995839;28;20049;-77
2022/12/29 04:58:12;;;;;;;0.73;0.30;;;;;;;8.76;100.00;100283.53;4997192;28;20057;-75
2022/12/29 05:00:42;;;;;;;0.82;0.30;;;;;;;8.80;100.00;100282.81;5007516;28;20084;-76
2022/12/29 05:03:10;;;;;;;0.47;0.17;;;;;;;8.81;100.00;100281.97;4997887;28;20046;-78
2022/12/29 05:05:39;;;;;;;0.52;0.30;;;;;;;8.84;100.00;100281.19;5009620;28;20043;-76
2022/12/29 05:08:08;;;;;;;0.70;0.20;;;;;;;8.86;100.00;100282.09;5011269;28;20081;-77
2022/12/29 05:10:37;;;;;;;0.60;0.32;;;;;;;8.88;100.00;100271.00;5002558;28;20129;-75
2022/12/29 05:13:05;;;;;;;1.80;0.57;;;;;;;8.89;100.00;100262.44;5007885;28;20088;-76
2022/12/29 05:15:36;;;;;;;0.75;0.40;;;;;;;8.89;100.00;100259.84;5013339;28;20495;-77
2022/12/29 05:18:04;;;;;;;3.50;0.47;;;;;;;8.87;100.00;100255.50;5012841;28;20053;-77
2022/12/29 05:20:33;;;;;;;1.30;0.50;;;;;;;8.85;100.00;100250.28;5010589;28;20506;-76
2022/12/29 05:23:01;;;;;;;1.10;0.45;;;;;;;8.83;100.00;100243.31;5010208;28;20136;-74
2022/12/29 05:25:30;;;;;;;2.00;0.80;;;;;;;8.80;100.00;100238.97;5011355;28;20038;-77
2022/12/29 05:27:59;;;;;;;1.63;0.70;;;;;;;8.78;100.00;100238.03;5016948;28;20058;-76
2022/12/29 05:30:27;;;;;;;1.10;0.70;;;;;;;8.74;100.00;100231.91;5000988;28;20454;-76
2022/12/29 05:32:57;;;;;;;2.55;0.68;;;;;;;8.71;100.00;100233.53;5008745;28;20722;-76
2022/12/29 05:35:26;;;;;;;1.15;0.60;;;;;;;8.65;100.00;100230.78;5020254;28;20141;-77
2022/12/29 05:37:54;;;;;;;0.98;0.60;;;;;;;8.63;100.00;100235.00;5005167;28;20421;-78
2022/12/29 05:40:23;;;;;;;1.55;0.45;;;;;;;8.58;100.00;100219.41;5002331;28;20665;-77
2022/12/29 05:42:52;;;;;;;1.08;0.63;;;;;;;8.54;100.00;100221.03;5011019;28;20057;-75
2022/12/29 05:45:20;;;;;;;1.48;0.52;;;;;;;8.51;100.00;100214.91;5009775;28;20046;-75
2022/12/29 05:47:49;;;;;;;0.98;0.50;;;;;;;8.46;100.00;100217.34;5009044;28;20174;-75
2022/12/29 05:50:19;;;;;;;1.92;0.90;;;;;;;8.42;100.00;100218.09;4998320;28;20054;-75
2022/12/29 05:52:48;;;;;;;1.92;0.73;;;;;;;8.41;100.00;100223.19;4985145;28;20640;-75
2022/12/29 05:55:17;;;;;;;0.73;0.50;;;;;;;8.37;100.00;100217.91;4976131;28;20058;-75
2022/12/29 05:57:45;;;;;;;3.03;1.23;;;;;;;8.33;100.00;100210.03;4985478;28;20476;-74
2022/12/29 06:00:15;;;;;;;1.73;0.82;;;;;;;8.32;100.00;100216.03;4989740;28;20043;-74
2022/12/29 06:02:44;;;;;;;4.95;1.33;;;;;;;8.28;100.00;100211.63;4990406;28;20546;-78
2022/12/29 06:05:12;;;;;;;1.00;0.80;;;;;;;8.26;100.00;100208.97;4988651;28;20957;-78
2022/12/29 06:07:44;;;;;;;3.88;1.25;;;;;;;8.23;100.00;100206.31;4985099;28;20070;-76
2022/12/29 06:10:13;;;;;;;3.40;1.80;;;;;;;8.22;100.00;100201.13;4988736;28;20046;-76
2022/12/29 06:12:41;;;;;;;3.30;1.00;;;;;;;8.18;100.00;100195.88;4983643;28;20528;-76
2022/12/29 06:15:11;;;;;;;2.25;1.30;;;;;;;8.17;100.00;100196.69;4986631;28;20045;-76
2022/12/29 06:17:39;;;;;;;6.47;1.55;;;;;;;8.14;100.00;100194.03;4986725;28;20073;-75
2022/12/29 06:20:09;;;;;;;4.15;1.15;;;;;;;8.13;100.00;100187.13;4985559;28;20039;-75
2022/12/29 06:22:38;;;;;;;1.92;1.00;;;;;;;8.05;100.00;100186.03;4982122;28;20085;-78
2022/12/29 06:25:10;;;;;;;2.45;1.23;;;;;;;8.01;100.00;100176.44;4987839;28;20157;-76
2022/12/29 06:27:38;;;;;;;3.78;1.45;;;;;;;7.98;100.00;100182.38;4995838;28;20057;-74
2022/12/29 06:30:08;;;;;;;1.83;0.98;;;;;;;7.95;100.00;100173.69;4986326;28;20179;-75
2022/12/29 06:32:37;;;;;;;9.80;1.42;;;;;;;7.90;100.00;100167.50;4984398;28;20059;-76
2022/12/29 06:35:07;;;;;;;4.28;1.70;;;;;;;7.85;100.00;100162.22;4988007;28;20053;-77
2022/12/29 06:37:35;;;;;;;2.67;1.10;;;;;;;7.84;100.00;100159.63;4978459;28;20045;-73
2022/12/29 06:40:04;;;;;;;2.85;1.60;;;;;;;7.84;100.00;100159.63;4985393;28;20081;-73
2022/12/29 06:42:34;;;;;;;3.83;1.30;;;;;;;7.84;100.00;100162.19;4990035;28;20112;-72
2022/12/29 06:45:03;;;;;;;3.58;1.20;;;;;;;7.83;100.00;100161.28;4988172;28;20620;-73
2022/12/29 06:47:32;;;;;;;1.95;1.17;;;;;;;7.83;100.00;100157.84;4985922;28;20053;-73
2022/12/29 06:50:00;;;;;;;4.25;1.25;;;;;;;7.81;100.00;100155.25;4993380;28;20055;-73
2022/12/29 06:52:29;;;;;;;2.28;1.10;;;;;;;7.79;100.00;100153.41;4985351;28;20054;-73
2022/12/29 06:54:58;;;;;;;3.05;0.88;;;;;;;7.75;100.00;100148.19;4988394;28;20102;-73
2022/12/29 06:57:27;;;;;;;7.55;1.15;;;;;;;7.75;100.00;100149.91;4991753;28;20057;-73
2022/12/29 06:59:57;;;;;;;3.53;1.52;;;;;;;7.74;100.00;100150.69;4988728;28;20129;-73
2022/12/29 07:02:26;;;;;;;2.15;0.88;;;;;;;7.71;100.00;100146.34;4981993;28;20086;-74
2022/12/29 07:04:55;;;;;;;1.85;1.10;;;;;;;7.69;100.00;100140.25;4988663;28;20133;-74
2022/12/29 07:07:24;;;;;;;2.75;0.82;;;;;;;7.68;100.00;100135.09;4985560;28;20077;-74
2022/12/29 07:09:53;;;;;;;5.55;3.17;;;;;;;7.66;100.00;100140.19;4982664;28;20065;-74
2022/12/29 07:12:22;;;;;;;1.80;1.00;;;;;;;7.64;100.00;100134.09;4985927;28;20049;-74
2022/12/29 07:14:50;;;;;;;3.20;1.20;;;;;;;7.62;100.00;100137.47;4977227;28;20122;-74
2022/12/29 07:17:21;;;;;;;1.77;1.30;;;;;;;7.62;100.00;100145.19;4983082;28;20054;-73
2022/12/29 07:19:49;;;;;;;2.95;1.23;;;;;;;7.60;100.00;100134.81;4988336;28;20080;-74
2022/12/29 07:22:18;;;;;;;3.53;1.52;;;;;;;7.60;100.00;100132.25;4990709;28;20053;-73
2022/12/29 07:24:47;;;;;;;4.47;1.75;;;;;;;7.59;100.00;100135.66;4990459;28;20527;-74
2022/12/29 07:27:16;;;;;;;5.40;1.40;;;;;;;7.56;100.00;100133.00;4988727;28;20041;-73
2022/12/29 07:29:45;;;;;;;8.02;1.92;;;;;;;7.55;100.00;100123.50;4987243;28;20054;-73
2022/12/29 07:32:13;;;;;;;4.95;2.03;;;;;;;7.55;100.00;100118.38;4985848;28;20090;-73
2022/12/29 07:34:45;;;;;;;4.10;1.73;;;;;;;7.54;100.00;100114.06;4985051;28;20046;-73
2022/12/29 07:37:13;;;;;;;4.65;1.92;;;;;;;7.51;100.00;100111.38;4980539;28;20547;-73
2022/12/29 07:39:42;;;;;;;5.07;1.80;;;;;;;7.49;100.00;100107.88;4982378;28;20613;-73
2022/12/29 07:42:11;;;;;;;3.72;1.75;;;;;;;7.46;100.00;100103.50;4984362;28;20442;-74
2022/12/29 07:44:40;;;;;;;4.90;1.77;;;;;;;7.45;100.00;100095.75;4977425;28;20062;-73
2022/12/29 07:47:08;;;;;;;4.75;1.70;;;;;;;7.43;100.00;100087.09;4987224;28;20043;-73
2022/12/29 07:49:37;;;;;;;3.55;1.67;;;;;;;7.42;100.00;100086.25;4987906;28;20766;-74
2022/12/29 07:52:07;;;;;;;3.78;1.70;;;;;;;7.41;100.00;100088.75;5005033;28;20393;-73
2022/12/29 07:54:36;;;;;;;7.13;1.67;;;;;;;7.39;100.00;100085.25;5010298;28;20690;-74
2022/12/29 07:57:05;;;;;;;5.90;1.98;;;;;;;7.39;100.00;100080.09;5007311;28;20050;-74
2022/12/29 07:59:34;;;;;;;7.18;2.40;;;;;;;7.38;100.00;100076.66;5004955;28;20062;-74
2022/12/29 08:02:03;;;;;;;7.68;2.65;;;;;;;7.37;100.00;100069.75;5010768;28;20048;-73
2022/12/29 08:04:31;;;;;;;4.90;2.47;;;;;;;7.37;100.00;100076.59;5009838;28;20133;-73
2022/12/29 08:07:00;;;;;;;4.88;2.38;;;;;;;7.34;100.00;100070.53;5010856;28;20056;-73
2022/12/29 08:09:30;;;;;;;6.22;2.50;;;;;;;7.33;100.00;100068.81;5010736;28;20053;-73
2022/12/29 08:11:59;;;;;;;9.48;2.20;;;;;;;7.30;100.00;100063.53;5009035;28;20504;-73
2022/12/29 08:14:27;;;;;;;6.32;2.42;;;;;;;7.29;100.00;100059.22;5009457;28;20046;-73
2022/12/29 08:16:56;;;;;;;4.35;1.92;;;;;;;7.28;100.00;100057.50;5004010;28;20046;-73
2022/12/29 08:19:24;;;;;;;4.90;2.30;;;;;;;7.27;100.00;100047.16;5010376;28;20103;-74
2022/12/29 08:21:54;;;;;;;3.40;1.63;;;;;;;7.26;100.00;100046.28;5006605;28;20050;-72
2022/12/29 08:24:22;;;;;;;4.10;1.90;;;;;;;7.24;100.00;100039.31;5004222;28;20045;-73
2022/12/29 08:26:53;;;;;;;4.38;1.80;;;;;;;7.21;100.00;100032.38;5007710;28;20069;-73
2022/12/29 08:29:21;;;;;;;4.78;1.88;;;;;;;7.20;100.00;100037.50;5011530;28;20566;-73
2022/12/29 08:31:50;;;;;;;9.75;1.67;;;;;;;7.17;100.00;100038.28;5007527;28;20046;-73
2022/12/29 08:34:19;;;;;;;3.15;1.58;;;;;;;7.14;100.00;100033.00;5007346;28;20042;-74
2022/12/29 08:36:47;;;;;;;4.72;1.42;;;;;;;7.13;100.00;100027.00;5010859;28;20512;-74
2022/12/29 08:39:16;;;;;;;6.82;1.70;;;;;;;7.13;100.00;100029.56;5004261;28;20135;-74
2022/12/29 08:41:44;;;;;;;5.55;2.17;;;;;;;7.12;100.00;100020.13;5007638;28;20049;-73
2022/12/29 08:44:15;;;;;;;5.60;2.05;;;;;;;7.13;100.00;100020.97;5002817;28;20071;-74
2022/12/29 08:46:43;;;;;;;4.32;2.40;;;;;;;7.11;100.00;100017.47;5003588;28;20050;-74
2022/12/29 08:49:12;;;;;;;3.83;1.80;;;;;;;7.12;100.00;100017.53;5010459;28;20075;-74
2022/12/29 08:51:41;;;;;;;3.83;1.80;;;;;;;7.10;100.00;100011.47;5008896;28;20080;-73
2022/12/29 08:54:09;;;;;;;5.15;1.88;;;;;;;7.10;100.00;100015.72;5011855;28;20069;-74
2022/12/29 08:56:38;;;;;;;5.50;1.80;;;;;;;7.10;100.00;100019.19;5007862;28;20655;-74
2022/12/29 08:59:06;;;;;;;8.38;2.80;;;;;;;7.09;100.00;100011.41;5014367;28;20096;-74
2022/12/29 09:01:40;;;;;;;5.15;2.40;;;;;;;7.10;100.00;100005.44;5009655;28;20045;-74
2022/12/29 09:04:08;;;;;;;5.05;1.73;;;;;;;7.09;100.00;100009.72;5007954;28;20140;-74
2022/12/29 09:06:37;;;;;;;4.30;1.83;;;;;;;7.07;100.00;100011.34;5008275;28;20049;-73
2022/12/29 09:09:05;;;;;;;4.85;1.80;;;;;;;7.08;100.00;100012.25;5007982;28;20487;-74
2022/12/29 09:11:34;;;;;;;7.30;2.22;;;;;;;7.07;100.00;100010.50;5015969;28;20053;-73
2022/12/29 09:14:03;;;;;;;4.65;2.33;;;;;;;7.05;100.00;100012.13;5014318;28;20064;-74
2022/12/29 09:16:31;;;;;;;5.50;2.53;;;;;;;7.02;100.00;100004.34;5007630;28;20124;-72
2022/12/29 09:19:02;;;;;;;8.40;1.83;;;;;;;7.02;100.00;100007.78;5013625;28;20045;-74
2022/12/29 09:21:30;;;;;;;4.25;2.00;;;;;;;7.03;100.00;100009.53;5009538;28;20140;-73
2022/12/29 09:23:59;;;;;;;5.43;2.10;;;;;;;7.02;100.00;100007.78;5005900;28;20049;-74
2022/12/29 09:26:28;;;;;;;5.70;1.98;;;;;;;7.05;100.00;100012.13;5009135;28;20057;-73
2022/12/29 09:28:56;;;;;;;3.92;1.27;;;;;;;7.07;100.00;100010.50;5010857;28;20414;-74
2022/12/29 09:31:25;;;;;;;3.38;1.40;;;;;;;7.08;100.00;100007.97;5007929;28;20562;-73
2022/12/29 09:33:53;;;;;;;3.97;1.80;;;;;;;7.10;100.00;100008.00;5011771;28;20121;-73
2022/12/29 09:36:24;;;;;;;3.10;1.35;;;;;;;7.12;100.00;100014.06;5012945;28;20057;-73
2022/12/29 09:38:54;;;;;;;4.07;1.60;;;;;;;7.13;100.00;100015.84;5013871;28;20045;-73
2022/12/29 09:41:28;;;;;;;2.65;1.30;;;;;;;7.12;100.00;100014.06;5011260;28;20689;-74
2022/12/29 09:44:13;;;;;;;2.55;1.42;;;;;;;7.10;100.00;100011.47;5009912;28;20045;-74
2022/12/29 09:46:45;;;;;;;2.15;1.20;;;;;;;7.12;100.00;100011.50;5007272;28;20583;-73
2022/12/29 09:49:25;;;;;;;5.40;1.87;;;;;;;7.11;100.00;100007.19;5011077;28;20073;-74
2022/12/29 09:52:01;;;;;;;3.10;1.30;;;;;;;7.12;100.00;100008.94;5004120;28;20149;-73
2022/12/29 09:54:44;;;;;;;6.05;1.73;;;;;;;7.10;100.00;100011.47;5005463;28;20057;-73
2022/12/29 09:57:21;;;;;;;3.67;1.35;;;;;;;7.05;100.00;100012.13;5005453;28;20046;-72
2022/12/29 09:59:52;;;;;;;2.50;1.55;;;;;;;6.98;100.00;100010.19;5014854;28;20165;-73
2022/12/29 10:02:33;;;;;;;5.15;1.40;;;;;;;6.93;100.00;100000.63;5015823;28;20339;-73
2022/12/29 10:05:01;;;;;;;5.32;1.40;;;;;;;6.91;100.00;100004.84;5012473;28;20060;-73
2022/12/29 10:07:46;;;;;;;4.68;1.55;;;;;;;6.90;100.00;100017.69;5012051;28;20045;-72
2022/12/29 10:10:26;;;;;;;4.82;1.83;;;;;;;6.88;100.00;100015.06;5009207;28;20058;-74
2022/12/29 10:13:05;;;;;;;2.42;1.23;;;;;;;6.89;100.00;100016.81;5009780;28;20480;-73
2022/12/29 10:15:47;;;;;;;4.75;1.52;;;;;;;6.89;100.00;100021.06;5007546;28;20597;-73
2022/12/29 10:18:39;;;;;;;2.47;1.27;;;;;;;6.87;100.00;100017.56;5006036;28;20762;-72
2022/12/29 10:21:17;;;;;;;3.65;1.60;;;;;;;6.85;100.00;100014.06;5008249;28;20053;-73
2022/12/29 10:23:51;;;;;;;4.03;1.88;;;;;;;6.85;100.00;100016.63;5012595;28;20065;-73
2022/12/29 10:26:23;;;;;;;4.55;1.83;;;;;;;6.87;100.00;100023.59;5014410;28;20149;-73
2022/12/29 10:28:56;;;;;;;2.63;1.57;;;;;;;6.89;100.00;100024.53;5004276;28;20159;-73
2022/12/29 10:31:26;;;;;;;4.60;1.58;;;;;;;6.89;100.00;100013.34;5009772;28;20054;-73
2022/12/29 10:34:01;;;;;;;2.47;1.45;;;;;;;6.88;100.00;100016.75;5011096;28;20057;-72
2022/12/29 10:36:36;;;;;;;3.15;1.67;;;;;;;6.86;100.00;100018.41;5005847;28;20140;-72
2022/12/29 10:39:15;;;;;;;2.67;1.52;;;;;;;6.84;100.00;100028.63;5012020;28;20054;-73
2022/12/29 10:41:48;;;;;;;2.58;1.55;;;;;;;6.83;100.00;100029.47;5012865;28;20059;-72
2022/12/29 10:44:19;;;;;;;4.07;0.95;;;;;;;6.83;100.00;100032.03;5008615;28;20050;-72
2022/12/29 10:46:57;;;;;;;4.05;1.95;;;;;;;6.85;100.00;100029.50;5018735;28;20060;-72
2022/12/29 10:49:28;;;;;;;4.18;1.83;;;;;;;6.88;100.00;100022.75;5004246;28;20060;-73
2022/12/29 10:52:01;;;;;;;1.88;1.20;;;;;;;6.90;100.00;100028.84;5002431;28;20045;-73
2022/12/29 10:54:38;;;;;;;2.33;1.25;;;;;;;6.91;100.00;100029.69;5004609;28;20076;-72
2022/12/29 10:57:12;;;;;;;3.00;1.40;;;;;;;6.96;100.00;100028.16;5007446;28;20053;-73
2022/12/29 10:59:41;;;;;;;2.63;1.58;;;;;;;7.00;100.00;100021.41;5013825;28;20056;-73
2022/12/29 11:02:28;;;;;;;2.72;1.50;;;;;;;7.02;100.00;100022.34;5012404;28;20102;-74
2022/12/29 11:05:03;;;;;;;2.83;1.13;;;;;;;7.05;100.00;100014.72;5008169;28;20050;-73
2022/12/29 11:07:33;;;;;;;2.88;1.30;;;;;;;7.05;100.00;100007.84;5012636;28;20081;-75
2022/12/29 11:10:22;;;;;;;1.52;1.13;;;;;;;7.07;100.00;100001.06;5013601;28;20057;-75
2022/12/29 11:12:59;;;;;;;3.28;1.50;;;;;;;7.08;100.00;99991.69;5006004;28;20177;-74
2022/12/29 11:15:28;;;;;;;2.28;1.30;;;;;;;7.08;100.00;99986.53;5006436;28;20484;-74
2022/12/29 11:18:00;;;;;;;2.88;1.13;;;;;;;7.08;100.00;99986.53;5006333;28;20048;-75
2022/12/29 11:20:32;;;;;;;3.13;1.53;;;;;;;7.05;100.00;99978.69;4996551;28;20130;-74
2022/12/29 11:23:01;;;;;;;;;;;;;;;7.04;100.00;99974.41;4995523;28;20467;-75
2022/12/29 11:25:31;;;;;;;3.13;1.40;;;;;;;7.06;100.00;99967.59;5002792;28;20477;-74
2022/12/29 11:28:02;;;;;;;3.88;1.92;;;;;;;7.06;100.00;99958.19;5009142;28;20639;-75
2022/12/29 11:30:33;;;;;;;9.80;2.35;;;;;;;7.07;100.00;99953.91;5003048;28;20056;-74
2022/12/29 11:33:10;;;;;;;4.07;1.95;;;;;;;7.06;100.00;99942.75;5013579;28;20447;-74
2022/12/29 11:35:42;;;;;;;7.63;2.72;;;;;;;7.06;100.00;99942.75;5006969;28;20041;-75
2022/12/29 11:38:21;;;;;;;6.95;2.60;;;;;;;7.06;100.00;99931.59;5006900;28;20061;-75
2022/12/29 11:40:52;;;;;;;5.00;3.03;;;;;;;7.07;100.00;99929.03;5008050;28;20045;-74
2022/12/29 11:43:25;;;;;;;6.18;3.20;;;;;;;7.07;100.00;99918.75;5005081;28;20065;-74
2022/12/29 11:45:56;;;;;;;7.55;3.33;;;;;;;7.07;100.00;99913.59;5012424;28;20050;-74
2022/12/29 11:48:26;;;;;;;7.82;2.50;;;;;;;7.08;100.00;99912.78;5008841;28;20524;-74
2022/12/29 11:50:59;;;;;;;6.80;2.95;;;;;;;7.10;100.00;99924.00;5004599;28;20058;-73
2022/12/29 11:53:29;;;;;;;7.50;3.17;;;;;;;7.10;100.00;99912.81;5010157;28;20634;-73
2022/12/29 11:56:02;;;;;;;11.15;2.72;;;;;;;7.09;100.00;99911.94;5008806;28;20049;-73
2022/12/29 11:58:32;;;;;;;5.25;2.70;;;;;;;7.07;100.00;99913.59;5013053;28;20060;-75
2022/12/29 12:01:05;;;;;;;3.03;1.98;;;;;;;7.07;100.00;99902.44;5006170;28;20117;-74
2022/12/29 12:03:37;;;;;;;7.38;2.40;;;;;;;7.05;100.00;99898.97;5000389;28;20072;-73
2022/12/29 12:06:14;;;;;;;3.92;1.67;;;;;;;7.07;100.00;99898.16;5003435;28;20149;-73
2022/12/29 12:08:48;;;;;;;4.22;1.67;;;;;;;7.09;100.00;99895.66;5005504;28;20049;-73
2022/12/29 12:11:22;;;;;;;5.18;2.03;;;;;;;7.11;100.00;99901.72;5008365;28;20531;-73
2022/12/29 12:14:00;;;;;;;4.47;1.35;;;;;;;7.13;100.00;99892.34;5002702;28;20570;-73
2022/12/29 12:16:35;;;;;;;4.68;1.33;;;;;;;7.13;100.00;99892.34;5008269;28;20054;-73
2022/12/29 12:19:14;;;;;;;1.70;1.15;;;;;;;7.15;100.00;99880.41;4999533;28;20116;-72
2022/12/29 12:21:43;;;;;;;4.88;1.90;;;;;;;7.17;100.00;99880.44;5000773;28;20078;-73
2022/12/29 12:24:31;;;;;;;1.90;0.90;;;;;;;7.09;100.00;99867.34;5008427;28;20069;-73